Time;durP1;ratioP1;P1;durP2;ratioP2;P2;SDS_P1;SDS_P2;PMS_P1;PMS_P2;Temp;Humidity;BMP_temperature;BMP_pressure;BME280_temperature;BME280_humidity;BME280_pressure;Samples;Min_cycle;Max_cycle;Signal;HPM_P1;HPM_P2
2022/10/12 00:01:31;;;;;;;32.70;12.30;;;;;;;0.00;0.00;0.00;106450;1299;22843;-80
2022/10/12 00:04:01;;;;;;;28.60;13.60;;;;;;;0.00;0.00;0.00;106543;1298;22037;-80
2022/10/12 00:06:31;;;;;;;38.90;16.20;;;;;;;0.00;0.00;0.00;106293;1313;22236;-80
2022/10/12 00:09:01;;;;;;;42.40;17.30;;;;;;;0.00;0.00;0.00;106558;1313;21942;-80
2022/10/12 00:18:42;;;;;;;36.90;14.10;;;;;;;0.00;0.00;0.00;100296;1342;544971;-86
2022/10/12 00:21:12;;;;;;;39.30;15.10;;;;;;;0.00;0.00;0.00;102197;1321;22484;-81
2022/10/12 00:23:41;;;;;;;32.20;14.10;;;;;;;0.00;0.00;0.00;102422;1314;22420;-84
2022/10/12 00:26:11;;;;;;;38.80;13.80;;;;;;;0.00;0.00;0.00;102580;1315;22479;-82
2022/10/12 00:28:38;;;;;;;34.80;13.50;;;;;;;0.00;0.00;0.00;102101;1317;22499;-84
2022/10/12 00:31:17;;;;;;;34.60;13.40;;;;;;;0.00;0.00;0.00;102431;1310;25336;-84
2022/10/12 00:33:45;;;;;;;35.00;12.60;;;;;;;0.00;0.00;0.00;102517;1320;25527;-83
2022/10/12 00:36:15;;;;;;;32.50;13.30;;;;;;;0.00;0.00;0.00;102545;1321;22482;-82
2022/10/12 00:38:43;;;;;;;33.30;14.00;;;;;;;0.00;0.00;0.00;102330;1317;23721;-86
2022/10/12 00:41:11;;;;;;;34.20;14.10;;;;;;;0.00;0.00;0.00;102489;1305;24331;-87
2022/10/12 00:43:40;;;;;;;34.80;14.00;;;;;;;0.00;0.00;0.00;102328;1321;23884;-81
2022/10/12 00:46:17;;;;;;;36.80;15.10;;;;;;;0.00;0.00;0.00;102491;1322;24442;-83
2022/10/12 00:48:48;;;;;;;31.80;13.90;;;;;;;0.00;0.00;0.00;102480;1310;22466;-82
2022/10/12 00:51:18;;;;;;;29.70;12.90;;;;;;;0.00;0.00;0.00;102503;1317;22638;-87
2022/10/12 00:53:52;;;;;;;34.50;13.90;;;;;;;0.00;0.00;0.00;102473;1311;23900;-81
2022/10/12 00:56:23;;;;;;;34.40;13.30;;;;;;;0.00;0.00;0.00;102597;1314;25287;-82
2022/10/12 00:58:50;;;;;;;32.40;13.30;;;;;;;0.00;0.00;0.00;102473;1318;22487;-83
2022/10/12 01:01:17;;;;;;;31.40;13.20;;;;;;;0.00;0.00;0.00;102593;1319;24247;-80
2022/10/12 01:03:44;;;;;;;32.10;13.00;;;;;;;0.00;0.00;0.00;102518;1319;22486;-87
2022/10/12 01:06:11;;;;;;;35.30;12.90;;;;;;;0.00;0.00;0.00;102786;1317;24349;-85
2022/10/12 01:08:38;;;;;;;36.30;13.70;;;;;;;0.00;0.00;0.00;102582;1320;25381;-81
2022/10/12 01:11:05;;;;;;;35.00;13.30;;;;;;;0.00;0.00;0.00;102497;1318;23257;-85
2022/10/12 01:13:32;;;;;;;30.70;13.00;;;;;;;0.00;0.00;0.00;102551;1319;24725;-84
2022/10/12 01:16:17;;;;;;;28.70;11.70;;;;;;;0.00;0.00;0.00;102953;1314;25456;-80
2022/10/12 01:19:06;;;;;;;33.50;12.50;;;;;;;0.00;0.00;0.00;102859;1307;22750;-84
2022/10/12 01:21:40;;;;;;;30.00;11.50;;;;;;;0.00;0.00;0.00;103526;1304;25358;-84
2022/10/12 01:24:16;;;;;;;33.20;12.40;;;;;;;0.00;0.00;0.00;103517;1301;22462;-82
2022/10/12 01:27:13;;;;;;;31.10;11.70;;;;;;;0.00;0.00;0.00;103546;1302;22533;-82
2022/10/12 01:29:55;;;;;;;27.60;10.80;;;;;;;0.00;0.00;0.00;103354;1304;22557;-85
2022/10/12 01:32:49;;;;;;;24.80;10.90;;;;;;;0.00;0.00;0.00;103583;1307;25204;-84
2022/10/12 01:35:38;;;;;;;33.50;11.60;;;;;;;0.00;0.00;0.00;103561;1302;25253;-81
2022/10/12 01:38:04;;;;;;;32.70;11.80;;;;;;;0.00;0.00;0.00;103521;1305;22498;-82
2022/10/12 01:40:45;;;;;;;30.90;12.80;;;;;;;0.00;0.00;0.00;103354;1306;22444;-80
2022/10/12 01:43:11;;;;;;;36.70;12.70;;;;;;;0.00;0.00;0.00;103243;1306;22473;-85
2022/10/12 01:45:38;;;;;;;36.70;13.10;;;;;;;0.00;0.00;0.00;103267;1306;24229;-81
2022/10/12 01:48:05;;;;;;;35.90;12.80;;;;;;;0.00;0.00;0.00;103486;1306;22474;-82
2022/10/12 01:50:51;;;;;;;31.60;13.30;;;;;;;0.00;0.00;0.00;103540;1292;22468;-83
2022/10/12 01:53:41;;;;;;;32.50;12.40;;;;;;;0.00;0.00;0.00;103361;1302;22479;-83
2022/10/12 01:56:20;;;;;;;30.00;12.00;;;;;;;0.00;0.00;0.00;103623;1307;22487;-85
2022/10/12 01:59:21;;;;;;;28.50;11.90;;;;;;;0.00;0.00;0.00;103515;1307;22600;-81
2022/10/12 02:02:00;;;;;;;26.50;10.50;;;;;;;0.00;0.00;0.00;102858;1313;25356;-82
2022/10/12 02:05:08;;;;;;;26.70;11.30;;;;;;;0.00;0.00;0.00;102777;1314;25292;-83
2022/10/12 02:07:43;;;;;;;26.90;10.70;;;;;;;0.00;0.00;0.00;102129;1321;22590;-86
2022/10/12 02:10:22;;;;;;;26.20;11.50;;;;;;;0.00;0.00;0.00;102084;1322;22576;-83
2022/10/12 02:12:51;;;;;;;25.10;9.70;;;;;;;0.00;0.00;0.00;101918;1321;23663;-84
2022/10/12 02:15:20;;;;;;;22.70;9.40;;;;;;;0.00;0.00;0.00;102199;1321;22503;-83
2022/10/12 02:17:51;;;;;;;24.70;9.00;;;;;;;0.00;0.00;0.00;101935;1315;24426;-81
2022/10/12 02:20:22;;;;;;;22.50;9.30;;;;;;;0.00;0.00;0.00;101791;1321;22499;-82
2022/10/12 02:22:50;;;;;;;23.60;9.20;;;;;;;0.00;0.00;0.00;101925;1321;23179;-83
2022/10/12 02:25:22;;;;;;;28.10;10.00;;;;;;;0.00;0.00;0.00;101791;1318;25260;-82
2022/10/12 02:28:02;;;;;;;27.10;10.50;;;;;;;0.00;0.00;0.00;101870;1321;22608;-83
2022/10/12 02:30:42;;;;;;;28.20;11.10;;;;;;;0.00;0.00;0.00;102168;1321;22491;-84
2022/10/12 02:33:21;;;;;;;29.10;11.50;;;;;;;0.00;0.00;0.00;101916;1321;22734;-81
2022/10/12 02:35:57;;;;;;;27.20;11.30;;;;;;;0.00;0.00;0.00;101815;1321;22582;-85
2022/10/12 02:38:48;;;;;;;24.30;10.90;;;;;;;0.00;0.00;0.00;101922;1321;22649;-85
2022/10/12 02:41:22;;;;;;;26.90;10.70;;;;;;;0.00;0.00;0.00;102594;1303;24342;-85
2022/10/12 02:43:49;;;;;;;27.70;11.00;;;;;;;0.00;0.00;0.00;102558;1307;24316;-81
2022/10/12 02:46:18;;;;;;;27.10;10.70;;;;;;;0.00;0.00;0.00;103611;1302;22469;-81
2022/10/12 02:48:47;;;;;;;27.50;11.70;;;;;;;0.00;0.00;0.00;103392;1301;22538;-82
2022/10/12 02:51:15;;;;;;;29.60;10.80;;;;;;;0.00;0.00;0.00;103439;1288;24417;-83
2022/10/12 02:53:44;;;;;;;23.40;10.50;;;;;;;0.00;0.00;0.00;103341;1306;22602;-82
2022/10/12 02:56:13;;;;;;;26.20;10.10;;;;;;;0.00;0.00;0.00;103310;1295;24343;-81
2022/10/12 02:58:45;;;;;;;29.40;10.60;;;;;;;0.00;0.00;0.00;103492;1307;25449;-85
2022/10/12 03:01:12;;;;;;;27.20;10.30;;;;;;;0.00;0.00;0.00;103288;1295;22451;-82
2022/10/12 03:03:40;;;;;;;22.00;10.40;;;;;;;0.00;0.00;0.00;103558;1302;22469;-85
2022/10/12 03:06:07;;;;;;;24.30;9.50;;;;;;;0.00;0.00;0.00;103500;1307;24461;-82
2022/10/12 03:08:34;;;;;;;22.20;8.80;;;;;;;0.00;0.00;0.00;103317;1306;25290;-83
2022/10/12 03:11:07;;;;;;;25.50;10.50;;;;;;;0.00;0.00;0.00;103331;1306;25606;-82
2022/10/12 03:13:34;;;;;;;24.90;10.00;;;;;;;0.00;0.00;0.00;103409;1306;22495;-83
2022/10/12 03:16:07;;;;;;;27.50;10.40;;;;;;;0.00;0.00;0.00;103331;1307;22496;-85
2022/10/12 03:18:33;;;;;;;26.10;10.20;;;;;;;0.00;0.00;0.00;103527;1301;22468;-86
2022/10/12 03:21:00;;;;;;;28.30;10.20;;;;;;;0.00;0.00;0.00;103394;1301;25254;-84
2022/10/12 03:23:27;;;;;;;26.30;11.00;;;;;;;0.00;0.00;0.00;103340;1307;22447;-81
2022/10/12 03:25:54;;;;;;;26.30;11.00;;;;;;;0.00;0.00;0.00;103491;1307;22477;-85
2022/10/12 03:28:21;;;;;;;27.30;10.00;;;;;;;0.00;0.00;0.00;103508;1306;22509;-83
2022/10/12 03:30:47;;;;;;;23.90;10.10;;;;;;;0.00;0.00;0.00;103446;1301;22475;-81
2022/10/12 03:33:14;;;;;;;22.80;9.80;;;;;;;0.00;0.00;0.00;103437;1301;22600;-82
2022/10/12 03:35:45;;;;;;;27.80;10.10;;;;;;;0.00;0.00;0.00;103297;1301;22479;-85
2022/10/12 03:38:13;;;;;;;25.30;9.90;;;;;;;0.00;0.00;0.00;103373;1306;25382;-83
2022/10/12 03:40:40;;;;;;;26.30;10.80;;;;;;;0.00;0.00;0.00;103467;1307;22485;-85
2022/10/12 03:43:08;;;;;;;23.70;9.80;;;;;;;0.00;0.00;0.00;103339;1286;22490;-81
2022/10/12 03:45:34;;;;;;;25.70;11.40;;;;;;;0.00;0.00;0.00;103492;1307;25252;-84
2022/10/12 03:48:03;;;;;;;59.70;11.60;;;;;;;0.00;0.00;0.00;103473;1307;23280;-83
2022/10/12 03:50:33;;;;;;;21.20;9.30;;;;;;;0.00;0.00;0.00;103349;1307;25217;-82
2022/10/12 03:53:03;;;;;;;23.60;9.60;;;;;;;0.00;0.00;0.00;103314;1307;22605;-81
2022/10/12 03:55:30;;;;;;;25.60;9.30;;;;;;;0.00;0.00;0.00;103427;1302;22482;-83
2022/10/12 03:57:56;;;;;;;22.60;8.80;;;;;;;0.00;0.00;0.00;103400;1294;22494;-84
2022/10/12 04:00:24;;;;;;;25.10;10.30;;;;;;;0.00;0.00;0.00;103488;1294;24314;-83
2022/10/12 04:02:50;;;;;;;24.60;9.30;;;;;;;0.00;0.00;0.00;103324;1304;22465;-84
2022/10/12 04:05:17;;;;;;;25.70;10.20;;;;;;;0.00;0.00;0.00;103250;1306;22457;-82
2022/10/12 04:07:44;;;;;;;26.10;9.90;;;;;;;0.00;0.00;0.00;103310;1301;22472;-87
2022/10/12 04:10:11;;;;;;;25.90;9.10;;;;;;;0.00;0.00;0.00;103448;1302;24245;-81
2022/10/12 04:12:38;;;;;;;21.00;9.20;;;;;;;0.00;0.00;0.00;103415;1291;22437;-84
2022/10/12 04:15:05;;;;;;;25.10;10.00;;;;;;;0.00;0.00;0.00;103303;1307;22469;-86
2022/10/12 04:17:32;;;;;;;29.30;10.80;;;;;;;0.00;0.00;0.00;103570;1298;22476;-81
2022/10/12 04:19:59;;;;;;;25.40;10.20;;;;;;;0.00;0.00;0.00;103271;1307;25538;-84
2022/10/12 04:22:26;;;;;;;21.50;9.00;;;;;;;0.00;0.00;0.00;103321;1306;22616;-80
2022/10/12 04:24:52;;;;;;;23.50;8.40;;;;;;;0.00;0.00;0.00;103338;1307;22471;-86
2022/10/12 04:27:19;;;;;;;18.80;9.00;;;;;;;0.00;0.00;0.00;103314;1307;22514;-82
2022/10/12 04:29:46;;;;;;;21.10;8.60;;;;;;;0.00;0.00;0.00;103354;1306;25305;-85
2022/10/12 04:32:13;;;;;;;18.70;8.40;;;;;;;0.00;0.00;0.00;103476;1301;22537;-82
2022/10/12 04:34:40;;;;;;;20.30;8.10;;;;;;;0.00;0.00;0.00;103306;1306;24241;-82
2022/10/12 04:37:06;;;;;;;20.80;8.40;;;;;;;0.00;0.00;0.00;103316;1306;22466;-82
2022/10/12 04:39:33;;;;;;;18.80;8.10;;;;;;;0.00;0.00;0.00;103425;1306;24244;-86
2022/10/12 04:42:01;;;;;;;34.60;9.70;;;;;;;0.00;0.00;0.00;103441;1304;23891;-81
2022/10/12 04:44:28;;;;;;;38.60;9.70;;;;;;;0.00;0.00;0.00;103331;1301;22501;-81
2022/10/12 04:46:54;;;;;;;31.50;10.00;;;;;;;0.00;0.00;0.00;103442;1306;22593;-81
2022/10/12 04:49:21;;;;;;;40.40;10.00;;;;;;;0.00;0.00;0.00;103292;1307;24242;-81
2022/10/12 04:51:48;;;;;;;31.40;8.40;;;;;;;0.00;0.00;0.00;103307;1303;25201;-82
2022/10/12 04:54:15;;;;;;;26.50;7.80;;;;;;;0.00;0.00;0.00;103437;1307;22475;-87
2022/10/12 04:56:42;;;;;;;24.80;8.30;;;;;;;0.00;0.00;0.00;103321;1309;22459;-82
2022/10/12 04:59:09;;;;;;;29.90;8.20;;;;;;;0.00;0.00;0.00;103336;1307;25328;-82
2022/10/12 05:01:35;;;;;;;27.00;7.70;;;;;;;0.00;0.00;0.00;103338;1293;22548;-86
2022/10/12 05:04:02;;;;;;;25.50;7.10;;;;;;;0.00;0.00;0.00;103431;1307;22486;-85
2022/10/12 05:06:29;;;;;;;21.30;6.80;;;;;;;0.00;0.00;0.00;103314;1307;22472;-82
2022/10/12 05:08:56;;;;;;;26.10;7.00;;;;;;;0.00;0.00;0.00;103298;1295;22485;-87
2022/10/12 05:11:23;;;;;;;20.60;6.90;;;;;;;0.00;0.00;0.00;103347;1300;25736;-81
2022/10/12 05:13:49;;;;;;;32.20;8.40;;;;;;;0.00;0.00;0.00;103354;1295;22470;-81
2022/10/12 05:16:16;;;;;;;26.70;8.00;;;;;;;0.00;0.00;0.00;103271;1294;24325;-82
2022/10/12 05:18:43;;;;;;;36.40;9.40;;;;;;;0.00;0.00;0.00;103194;1294;22488;-85
2022/10/12 05:21:10;;;;;;;25.80;7.80;;;;;;;0.00;0.00;0.00;103579;1285;22592;-82
2022/10/12 05:23:37;;;;;;;28.90;7.80;;;;;;;0.00;0.00;0.00;106880;1299;22146;-81
2022/10/12 05:26:04;;;;;;;20.90;7.90;;;;;;;0.00;0.00;0.00;106746;1300;22077;-81
2022/10/12 05:28:31;;;;;;;30.20;7.40;;;;;;;0.00;0.00;0.00;106872;1285;22923;-81
2022/10/12 05:30:57;;;;;;;19.90;7.10;;;;;;;0.00;0.00;0.00;106690;1306;22113;-80
2022/10/12 05:33:24;;;;;;;24.70;7.40;;;;;;;0.00;0.00;0.00;106835;1307;22074;-81
2022/10/12 05:35:51;;;;;;;27.10;7.50;;;;;;;0.00;0.00;0.00;106733;1306;22131;-81
2022/10/12 05:38:18;;;;;;;25.80;7.40;;;;;;;0.00;0.00;0.00;106742;1301;22095;-81
2022/10/12 05:40:44;;;;;;;21.90;7.20;;;;;;;0.00;0.00;0.00;106716;1302;22074;-81
2022/10/12 05:43:11;;;;;;;21.00;6.70;;;;;;;0.00;0.00;0.00;106737;1302;22100;-80
2022/10/12 05:45:38;;;;;;;20.90;7.60;;;;;;;0.00;0.00;0.00;106816;1301;22821;-81
2022/10/12 05:48:05;;;;;;;26.70;7.50;;;;;;;0.00;0.00;0.00;106730;1306;22065;-81
2022/10/12 05:50:31;;;;;;;20.60;7.30;;;;;;;0.00;0.00;0.00;106834;1306;22110;-81
2022/10/12 05:52:58;;;;;;;21.80;7.40;;;;;;;0.00;0.00;0.00;106678;1287;22096;-82
2022/10/12 05:55:25;;;;;;;26.40;8.60;;;;;;;0.00;0.00;0.00;106720;1306;22180;-82
2022/10/12 05:57:52;;;;;;;24.90;7.50;;;;;;;0.00;0.00;0.00;106734;1306;22297;-81
2022/10/12 06:00:19;;;;;;;27.70;7.50;;;;;;;0.00;0.00;0.00;106824;1306;22841;-81
2022/10/12 06:02:46;;;;;;;23.20;7.00;;;;;;;0.00;0.00;0.00;106827;1300;22050;-81
2022/10/12 06:05:13;;;;;;;22.60;7.50;;;;;;;0.00;0.00;0.00;106714;1302;22155;-81
2022/10/12 06:07:39;;;;;;;22.10;7.70;;;;;;;0.00;0.00;0.00;106916;1306;22571;-82
2022/10/12 06:10:07;;;;;;;25.70;8.60;;;;;;;0.00;0.00;0.00;106731;1301;22106;-82
2022/10/12 06:12:34;;;;;;;28.70;9.10;;;;;;;0.00;0.00;0.00;106695;1301;21963;-82
2022/10/12 06:15:00;;;;;;;36.50;10.20;;;;;;;0.00;0.00;0.00;106654;1302;22080;-82
2022/10/12 06:17:27;;;;;;;27.90;7.80;;;;;;;0.00;0.00;0.00;106665;1309;22067;-82
2022/10/12 06:19:54;;;;;;;27.60;8.50;;;;;;;0.00;0.00;0.00;106661;1297;22167;-82
2022/10/12 06:22:20;;;;;;;40.90;16.00;;;;;;;0.00;0.00;0.00;106698;1309;22691;-82
2022/10/12 06:24:47;;;;;;;41.80;17.20;;;;;;;0.00;0.00;0.00;106734;1308;22055;-82
2022/10/12 06:27:16;;;;;;;51.40;20.20;;;;;;;0.00;0.00;0.00;106726;1301;22710;-82
2022/10/12 06:29:43;;;;;;;62.40;22.70;;;;;;;0.00;0.00;0.00;106688;1302;22605;-82
2022/10/12 06:32:09;;;;;;;65.00;26.10;;;;;;;0.00;0.00;0.00;106646;1304;22886;-83
2022/10/12 06:34:36;;;;;;;62.80;22.50;;;;;;;0.00;0.00;0.00;106669;1304;22088;-83
2022/10/12 06:37:03;;;;;;;55.50;19.00;;;;;;;0.00;0.00;0.00;106707;1305;22109;-82
2022/10/12 06:39:29;;;;;;;44.60;16.10;;;;;;;0.00;0.00;0.00;106687;1309;22105;-83
2022/10/12 06:41:56;;;;;;;46.80;14.60;;;;;;;0.00;0.00;0.00;106738;1301;22059;-83
2022/10/12 06:44:24;;;;;;;52.10;15.00;;;;;;;0.00;0.00;0.00;106678;1309;22103;-83
2022/10/12 06:46:51;;;;;;;47.80;13.30;;;;;;;0.00;0.00;0.00;106727;1309;22059;-83
2022/10/12 06:49:17;;;;;;;43.10;15.50;;;;;;;0.00;0.00;0.00;106731;1309;22032;-83
2022/10/12 06:51:44;;;;;;;38.30;15.20;;;;;;;0.00;0.00;0.00;106718;1301;21993;-83
2022/10/12 06:54:11;;;;;;;49.40;14.60;;;;;;;0.00;0.00;0.00;106658;1291;21953;-83
2022/10/12 06:56:38;;;;;;;44.40;14.80;;;;;;;0.00;0.00;0.00;106695;1304;22806;-83
2022/10/12 06:59:05;;;;;;;33.90;13.60;;;;;;;0.00;0.00;0.00;106671;1302;22775;-83
2022/10/12 07:01:32;;;;;;;50.10;15.00;;;;;;;0.00;0.00;0.00;106705;1309;22051;-83
2022/10/12 07:03:59;;;;;;;44.50;15.20;;;;;;;0.00;0.00;0.00;106646;1300;22146;-83
2022/10/12 07:06:25;;;;;;;50.70;18.30;;;;;;;0.00;0.00;0.00;106574;1301;22131;-83
2022/10/12 07:08:53;;;;;;;58.90;25.20;;;;;;;0.00;0.00;0.00;106671;1304;22134;-83
2022/10/12 07:11:21;;;;;;;79.80;27.10;;;;;;;0.00;0.00;0.00;106643;1309;22216;-83
2022/10/12 07:13:48;;;;;;;82.90;27.60;;;;;;;0.00;0.00;0.00;106651;1305;22723;-83
2022/10/12 07:16:15;;;;;;;79.60;27.00;;;;;;;0.00;0.00;0.00;106681;1301;22108;-82
2022/10/12 07:18:43;;;;;;;70.40;27.90;;;;;;;0.00;0.00;0.00;106708;1308;22131;-82
2022/10/12 07:21:10;;;;;;;81.40;27.40;;;;;;;0.00;0.00;0.00;106689;1301;21975;-83
2022/10/12 07:23:37;;;;;;;64.10;24.10;;;;;;;0.00;0.00;0.00;106631;1305;22114;-83
2022/10/12 07:26:04;;;;;;;69.90;25.00;;;;;;;0.00;0.00;0.00;106600;1293;22060;-83
2022/10/12 07:28:32;;;;;;;51.70;18.20;;;;;;;0.00;0.00;0.00;106660;1309;22062;-82
2022/10/12 07:31:04;;;;;;;55.80;17.50;;;;;;;0.00;0.00;0.00;106589;1305;22060;-83
2022/10/12 07:33:33;;;;;;;50.00;19.60;;;;;;;0.00;0.00;0.00;106693;1309;22113;-83
2022/10/12 07:36:01;;;;;;;48.10;18.20;;;;;;;0.00;0.00;0.00;106621;1304;22118;-82
2022/10/12 07:38:28;;;;;;;39.70;14.10;;;;;;;0.00;0.00;0.00;106639;1309;22142;-82
2022/10/12 07:41:00;;;;;;;45.70;14.20;;;;;;;0.00;0.00;0.00;106630;1304;22175;-83
2022/10/12 07:43:29;;;;;;;34.40;11.20;;;;;;;0.00;0.00;0.00;106609;1305;22163;-82
2022/10/12 07:45:58;;;;;;;34.20;10.90;;;;;;;0.00;0.00;0.00;106621;1305;22710;-83
2022/10/12 07:48:25;;;;;;;26.50;9.40;;;;;;;0.00;0.00;0.00;106710;1309;21952;-83
2022/10/12 07:50:51;;;;;;;29.80;9.00;;;;;;;0.00;0.00;0.00;106671;1301;22132;-82
2022/10/12 07:53:18;;;;;;;25.10;6.60;;;;;;;0.00;0.00;0.00;106717;1298;22553;-83
2022/10/12 07:55:45;;;;;;;31.30;6.90;;;;;;;0.00;0.00;0.00;106688;1310;22079;-82
2022/10/12 07:58:11;;;;;;;25.40;6.70;;;;;;;0.00;0.00;0.00;106629;1304;22092;-82
2022/10/12 08:00:38;;;;;;;23.30;6.60;;;;;;;0.00;0.00;0.00;106666;1304;22872;-82
2022/10/12 08:03:05;;;;;;;25.00;6.90;;;;;;;0.00;0.00;0.00;106701;1304;22052;-82
2022/10/12 08:05:32;;;;;;;21.30;5.50;;;;;;;0.00;0.00;0.00;106602;1309;22056;-82
2022/10/12 08:07:59;;;;;;;20.00;4.40;;;;;;;0.00;0.00;0.00;106699;1310;21979;-82
2022/10/12 08:10:26;;;;;;;19.80;4.60;;;;;;;0.00;0.00;0.00;106695;1308;22971;-82
2022/10/12 08:12:53;;;;;;;20.30;5.30;;;;;;;0.00;0.00;0.00;106612;1303;22076;-82
2022/10/12 08:15:19;;;;;;;16.30;4.20;;;;;;;0.00;0.00;0.00;106612;1310;22628;-82
2022/10/12 08:17:46;;;;;;;14.90;4.80;;;;;;;0.00;0.00;0.00;106593;1305;22080;-82
2022/10/12 08:20:13;;;;;;;17.30;4.50;;;;;;;0.00;0.00;0.00;106597;1304;22066;-82
2022/10/12 08:22:39;;;;;;;13.80;3.90;;;;;;;0.00;0.00;0.00;106644;1309;22157;-82
2022/10/12 08:25:06;;;;;;;17.00;3.70;;;;;;;0.00;0.00;0.00;106533;1298;22199;-82
2022/10/12 08:27:34;;;;;;;14.20;3.70;;;;;;;0.00;0.00;0.00;106692;1309;22115;-83
2022/10/12 08:30:01;;;;;;;12.30;3.30;;;;;;;0.00;0.00;0.00;106629;1310;22028;-83
2022/10/12 08:32:30;;;;;;;13.60;3.90;;;;;;;0.00;0.00;0.00;106606;1304;22131;-82
2022/10/12 08:34:58;;;;;;;17.20;4.00;;;;;;;0.00;0.00;0.00;106588;1310;21946;-83
2022/10/12 08:37:24;;;;;;;14.50;3.50;;;;;;;0.00;0.00;0.00;106623;1310;22721;-83
2022/10/12 08:39:51;;;;;;;13.80;4.00;;;;;;;0.00;0.00;0.00;106588;1310;22084;-82
2022/10/12 08:42:46;;;;;;;19.10;4.20;;;;;;;0.00;0.00;0.00;106586;1304;22767;-82
2022/10/12 08:45:22;;;;;;;11.50;3.40;;;;;;;0.00;0.00;0.00;106627;1305;22086;-82
2022/10/12 08:47:54;;;;;;;18.50;4.00;;;;;;;0.00;0.00;0.00;106684;1309;22058;-82
2022/10/12 08:50:29;;;;;;;13.80;2.90;;;;;;;0.00;0.00;0.00;106589;1305;22158;-82
2022/10/12 08:53:35;;;;;;;15.20;3.60;;;;;;;0.00;0.00;0.00;106638;1310;22758;-83
2022/10/12 08:56:01;;;;;;;15.20;3.70;;;;;;;0.00;0.00;0.00;106122;1315;22109;-82
2022/10/12 08:58:32;;;;;;;18.10;3.50;;;;;;;0.00;0.00;0.00;106249;1315;22207;-82
2022/10/12 09:01:08;;;;;;;14.80;3.40;;;;;;;0.00;0.00;0.00;106011;1310;22107;-83
2022/10/12 09:03:51;;;;;;;16.00;3.40;;;;;;;0.00;0.00;0.00;106599;1301;22289;-83
2022/10/12 09:06:22;;;;;;;14.70;3.80;;;;;;;0.00;0.00;0.00;105920;1304;22401;-82
2022/10/12 09:09:01;;;;;;;15.80;3.10;;;;;;;0.00;0.00;0.00;106110;1315;22092;-82
2022/10/12 09:11:51;;;;;;;12.00;2.80;;;;;;;0.00;0.00;0.00;106173;1311;22762;-83
2022/10/12 09:14:29;;;;;;;13.90;3.40;;;;;;;0.00;0.00;0.00;106163;1314;22837;-84
2022/10/12 09:16:59;;;;;;;13.10;3.00;;;;;;;0.00;0.00;0.00;106224;1308;22409;-83
2022/10/12 09:19:37;;;;;;;11.80;3.20;;;;;;;0.00;0.00;0.00;106077;1316;22168;-83
2022/10/12 09:22:07;;;;;;;13.90;3.10;;;;;;;0.00;0.00;0.00;105947;1310;22211;-83
2022/10/12 09:24:38;;;;;;;15.00;3.10;;;;;;;0.00;0.00;0.00;106096;1303;22142;-82
2022/10/12 09:27:16;;;;;;;10.20;3.00;;;;;;;0.00;0.00;0.00;106020;1311;22116;-83
2022/10/12 09:29:49;;;;;;;15.00;3.40;;;;;;;0.00;0.00;0.00;106069;1310;22082;-83
2022/10/12 09:32:42;;;;;;;10.40;3.00;;;;;;;0.00;0.00;0.00;106132;1311;22113;-84
2022/10/12 09:35:13;;;;;;;11.30;2.50;;;;;;;0.00;0.00;0.00;106320;1311;22182;-85
2022/10/12 09:37:40;;;;;;;13.80;2.30;;;;;;;0.00;0.00;0.00;106470;1311;22660;-86
2022/10/12 09:40:19;;;;;;;10.00;2.50;;;;;;;0.00;0.00;0.00;106510;1311;22049;-84
2022/10/12 09:42:46;;;;;;;12.00;2.70;;;;;;;0.00;0.00;0.00;106455;1312;22071;-83
2022/10/12 09:45:19;;;;;;;8.80;2.40;;;;;;;0.00;0.00;0.00;106557;1311;22103;-83
2022/10/12 09:48:11;;;;;;;8.70;2.20;;;;;;;0.00;0.00;0.00;106332;1307;22058;-83
2022/10/12 09:50:53;;;;;;;7.50;2.10;;;;;;;0.00;0.00;0.00;106903;1288;21948;-84
2022/10/12 09:53:29;;;;;;;9.10;3.20;;;;;;;0.00;0.00;0.00;106488;1310;22006;-84
2022/10/12 09:56:02;;;;;;;11.10;2.20;;;;;;;0.00;0.00;0.00;106549;1312;22049;-84
2022/10/12 09:58:36;;;;;;;13.10;2.80;;;;;;;0.00;0.00;0.00;106544;1311;22148;-84
2022/10/12 10:01:15;;;;;;;10.10;2.30;;;;;;;0.00;0.00;0.00;106562;1312;22070;-84
2022/10/12 10:03:41;;;;;;;8.70;2.20;;;;;;;0.00;0.00;0.00;106497;1312;22104;-83
2022/10/12 10:06:08;;;;;;;15.90;2.70;;;;;;;0.00;0.00;0.00;106538;1310;22108;-83
2022/10/12 10:08:44;;;;;;;8.90;1.70;;;;;;;0.00;0.00;0.00;106482;1312;22840;-83
2022/10/12 10:11:19;;;;;;;9.50;2.10;;;;;;;0.00;0.00;0.00;106558;1305;22822;-83
2022/10/12 10:13:50;;;;;;;11.60;3.10;;;;;;;0.00;0.00;0.00;106556;1313;22040;-84
2022/10/12 10:16:20;;;;;;;9.50;2.40;;;;;;;0.00;0.00;0.00;106441;1313;22102;-87
2022/10/12 10:19:01;;;;;;;10.50;2.80;;;;;;;0.00;0.00;0.00;106571;1302;22178;-84
2022/10/12 10:21:35;;;;;;;9.70;2.80;;;;;;;0.00;0.00;0.00;106522;1304;22024;-83
2022/10/12 10:24:06;;;;;;;10.50;2.30;;;;;;;0.00;0.00;0.00;106574;1312;22684;-86
2022/10/12 10:26:51;;;;;;;8.20;1.50;;;;;;;0.00;0.00;0.00;106529;1308;22819;-83
2022/10/12 10:29:20;;;;;;;9.20;1.70;;;;;;;0.00;0.00;0.00;106622;1310;22081;-84
2022/10/12 10:31:50;;;;;;;10.70;1.70;;;;;;;0.00;0.00;0.00;106592;1311;22784;-83
2022/10/12 10:34:17;;;;;;;7.70;1.30;;;;;;;0.00;0.00;0.00;106494;1312;22042;-85
2022/10/12 10:36:48;;;;;;;11.00;1.70;;;;;;;0.00;0.00;0.00;106582;1310;22845;-84
2022/10/12 10:39:29;;;;;;;8.10;2.10;;;;;;;0.00;0.00;0.00;106602;1311;22891;-83
2022/10/12 10:42:09;;;;;;;8.80;1.60;;;;;;;0.00;0.00;0.00;106556;1308;22787;-84
2022/10/12 10:44:45;;;;;;;10.00;1.80;;;;;;;0.00;0.00;0.00;106584;1312;22013;-84
2022/10/12 10:47:13;;;;;;;9.40;1.70;;;;;;;0.00;0.00;0.00;106713;1300;22066;-84
2022/10/12 10:49:48;;;;;;;10.40;2.00;;;;;;;0.00;0.00;0.00;106526;1312;21917;-85
2022/10/12 10:52:28;;;;;;;12.40;2.40;;;;;;;0.00;0.00;0.00;106569;1310;23037;-85
2022/10/12 10:55:15;;;;;;;11.30;1.70;;;;;;;0.00;0.00;0.00;106592;1298;22065;-84
2022/10/12 10:58:05;;;;;;;9.40;1.90;;;;;;;0.00;0.00;0.00;106558;1304;22176;-84
2022/10/12 11:00:36;;;;;;;11.60;1.70;;;;;;;0.00;0.00;0.00;106420;1312;22080;-84
2022/10/12 11:03:21;;;;;;;8.90;1.60;;;;;;;0.00;0.00;0.00;106592;1305;22160;-83
2022/10/12 11:05:57;;;;;;;9.30;2.00;;;;;;;0.00;0.00;0.00;106462;1312;22104;-83
2022/10/12 11:08:27;;;;;;;7.90;1.50;;;;;;;0.00;0.00;0.00;106570;1312;22126;-84
2022/10/12 11:11:06;;;;;;;8.90;1.60;;;;;;;0.00;0.00;0.00;106407;1312;22100;-83
2022/10/12 11:13:43;;;;;;;8.30;2.00;;;;;;;0.00;0.00;0.00;106355;1306;22052;-83
2022/10/12 11:16:25;;;;;;;23.30;10.10;;;;;;;0.00;0.00;0.00;106332;1312;22092;-83
2022/10/12 11:18:58;;;;;;;13.40;2.30;;;;;;;0.00;0.00;0.00;106555;1312;22105;-84
2022/10/12 11:21:35;;;;;;;46.10;31.90;;;;;;;0.00;0.00;0.00;106317;1312;22088;-89
2022/10/12 11:24:34;;;;;;;10.10;4.10;;;;;;;0.00;0.00;0.00;106465;1297;22081;-84
2022/10/12 11:27:14;;;;;;;23.30;13.70;;;;;;;0.00;0.00;0.00;106546;1307;22743;-85
2022/10/12 11:29:43;;;;;;;9.00;2.60;;;;;;;0.00;0.00;0.00;106349;1312;22080;-84
2022/10/12 11:32:23;;;;;;;10.70;2.60;;;;;;;0.00;0.00;0.00;106332;1307;22081;-85
2022/10/12 11:35:01;;;;;;;78.40;48.40;;;;;;;0.00;0.00;0.00;106524;1303;22095;-85
2022/10/12 11:37:39;;;;;;;50.60;26.20;;;;;;;0.00;0.00;0.00;106261;1312;22121;-85
2022/10/12 11:40:18;;;;;;;37.90;19.10;;;;;;;0.00;0.00;0.00;106179;1313;22161;-84
2022/10/12 11:42:50;;;;;;;14.50;5.20;;;;;;;0.00;0.00;0.00;106359;1312;22047;-85
2022/10/12 11:45:26;;;;;;;11.50;2.20;;;;;;;0.00;0.00;0.00;106599;1306;21875;-84
2022/10/12 11:48:00;;;;;;;10.50;2.00;;;;;;;0.00;0.00;0.00;106313;1308;22111;-84
2022/10/12 11:50:39;;;;;;;11.10;3.10;;;;;;;0.00;0.00;0.00;106326;1307;22777;-87
2022/10/12 11:53:15;;;;;;;77.80;48.90;;;;;;;0.00;0.00;0.00;106299;1312;22091;-85
2022/10/12 11:56:11;;;;;;;9.80;2.50;;;;;;;0.00;0.00;0.00;106304;1313;22057;-86
2022/10/12 11:58:43;;;;;;;16.20;7.10;;;;;;;0.00;0.00;0.00;106541;1313;22097;-84
2022/10/12 12:01:39;;;;;;;11.80;2.70;;;;;;;0.00;0.00;0.00;106535;1310;21981;-84
2022/10/12 12:04:27;;;;;;;11.30;1.70;;;;;;;0.00;0.00;0.00;106544;1311;22127;-85
2022/10/12 12:06:58;;;;;;;11.90;1.80;;;;;;;0.00;0.00;0.00;106415;1312;22092;-84
2022/10/12 12:09:36;;;;;;;11.70;1.70;;;;;;;0.00;0.00;0.00;106508;1311;22410;-85
2022/10/12 12:12:26;;;;;;;14.20;2.80;;;;;;;0.00;0.00;0.00;106165;1312;22099;-85
2022/10/12 12:15:02;;;;;;;12.80;2.30;;;;;;;0.00;0.00;0.00;106408;1312;22064;-83
2022/10/12 12:17:35;;;;;;;9.40;2.30;;;;;;;0.00;0.00;0.00;106146;1312;22086;-83
2022/10/12 12:21:02;;;;;;;10.10;2.00;;;;;;;0.00;0.00;0.00;106447;1313;22107;-86
2022/10/12 12:23:54;;;;;;;16.80;2.10;;;;;;;0.00;0.00;0.00;106549;1308;23021;-85
2022/10/12 12:26:29;;;;;;;12.70;1.80;;;;;;;0.00;0.00;0.00;105914;1315;22113;-86
2022/10/12 12:29:18;;;;;;;9.70;2.10;;;;;;;0.00;0.00;0.00;105809;1315;22030;-85
2022/10/12 12:32:00;;;;;;;10.90;1.50;;;;;;;0.00;0.00;0.00;105224;1316;764001;-89
2022/10/12 12:34:31;;;;;;;8.20;1.40;;;;;;;0.00;0.00;0.00;105967;1315;22168;-88
2022/10/12 12:37:12;;;;;;;9.00;1.80;;;;;;;0.00;0.00;0.00;106139;1314;22746;-84